Latest Weather Observations for Hay Airport

IDN60801

Issued at 12:35 pm EDT Saturday 22 November 2014 (issued every 30 minutes, with the page automatically refreshed every 10 minutes)

About weather observations | Map of weather stations | Latest weather observations for NSW | Other Formats
Station Details ID: 075019 Name: HAY AIRPORT AWS Lat: -34.54 Lon: 144.83 Height: 92.0 m
Data from the previous 72 hours. | See also: Recent months for locations in New South Wales
Date/Time
EDT
Temp
°C
App
Temp
°C
Dew
Point
Rel
Hum
%
Delta-T
°C
Wind Press
QNH
hPa
Press
MSL
hPa
Rain
since 9 am
mm
Dir
 
Spd
km/h
Gust
km/h
Spd
kts
Gust
kts
22/12:30pm 33.7 29.0 5.3 17 15.2 NNW 19 28 10 15 1011.1 1010.9 0.0
22/12:00pm 32.7 27.1 3.6 16 15.1 N 22 33 12 18 1011.4 1011.1 0.0
22/11:30am 31.7 26.3 4.5 18 14.2 N 22 33 12 18 1011.1 1010.9 0.0
22/11:00am 31.1 26.1 4.8 19 13.8 NNE 20 32 11 17 1010.9 1010.7 0.0
22/10:30am 30.5 25.2 5.0 20 13.4 NE 22 30 12 16 1010.9 1010.7 0.0
22/10:00am 29.5 23.9 3.5 19 13.2 NE 22 33 12 18 1011.4 1011.1 0.0
22/09:30am 28.5 22.9 3.4 20 12.6 NE 22 30 12 16 1011.4 1011.1 0.0
22/09:00am 26.8 20.7 2.7 21 11.9 ENE 24 30 13 16 1011.6 1011.3 0.0
22/08:30am 26.0 20.9 3.3 23 11.2 ENE 19 28 10 15 1011.5 1011.2 0.0
22/08:00am 23.8 18.4 2.6 25 10.2 ENE 20 28 11 15 1011.4 1011.1 0.0
22/07:30am 21.6 16.8 2.8 29 8.9 ENE 17 20 9 11 1011.6 1011.3 0.0
22/07:00am 19.5 15.9 2.8 33 7.8 E 11 15 6 8 1011.5 1011.2 0.0
22/06:30am 17.7 14.0 2.5 36 7.0 E 11 15 6 8 1011.0 1010.8 0.0
22/06:00am 16.3 12.6 2.3 39 6.3 E 11 13 6 7 1010.8 1010.6 0.0
22/05:30am 16.4 12.7 2.4 39 6.3 E 11 15 6 8 1010.3 1010.0 0.0
22/05:00am 16.1 12.4 2.5 40 6.2 E 11 11 6 6 1010.4 1010.2 0.0
22/04:30am 15.6 12.2 2.1 40 6.0 E 9 11 5 6 1010.4 1010.2 0.0
22/04:00am 15.7 12.7 2.2 40 6.0 ESE 7 9 4 5 1010.4 1010.2 0.0
22/03:30am 16.4 13.4 2.1 38 6.4 E 7 9 4 5 1010.5 1010.3 0.0
22/03:00am 17.2 14.3 2.4 37 6.7 E 7 11 4 6 1010.5 1010.3 0.0
22/02:30am 17.5 14.2 2.7 37 6.8 SE 9 9 5 5 1010.8 1010.6 0.0
22/02:00am 16.8 13.8 1.7 36 6.8 ESE 7 9 4 5 1011.0 1010.8 0.0
22/01:30am 17.2 13.9 0.4 32 7.3 SE 7 9 4 5 1011.1 1010.9 0.0
22/01:00am 18.7 15.3 1.7 32 7.7 SSE 9 11 5 6 1011.3 1011.0 0.0
22/12:30am 19.5 15.4 2.4 32 7.9 S 13 13 7 7 1011.5 1011.2 0.0
22/12:00am 19.3 15.5 1.8 31 8.0 SSE 11 13 6 7 1011.6 1011.3 0.0
 
Date/Time
EDT
Temp
°C
App
Temp
°C
Dew
Point
Rel
Hum
%
Delta-T
°C
Wind Press
QNH
hPa
Press
MSL
hPa
Rain
since 9 am
mm
Dir
 
Spd
km/h
Gust
km/h
Spd
kts
Gust
kts
21/11:30pm 21.0 16.9 2.3 29 8.8 S 13 17 7 9 1011.8 1011.5 0.0
21/11:00pm 21.1 16.9 1.9 28 8.9 S 13 15 7 8 1011.9 1011.6 0.0
21/10:30pm 21.8 17.3 2.0 27 9.3 SSW 15 17 8 9 1011.9 1011.6 0.0
21/10:00pm 23.3 18.7 1.6 24 10.2 SSW 15 17 8 9 1011.9 1011.6 0.0
21/09:30pm 24.0 19.5 2.2 24 10.4 SW 15 19 8 10 1011.6 1011.3 0.0
21/09:00pm 24.3 20.1 1.9 23 10.7 SW 13 15 7 8 1011.4 1011.1 0.0
21/08:30pm 25.5 21.4 2.2 22 11.3 SW 13 15 7 8 1011.1 1010.9 0.0
21/08:00pm 27.1 23.1 2.9 21 12.0 SW 13 17 7 9 1010.7 1010.5 0.0
21/07:30pm 28.3 23.7 3.9 21 12.4 SW 17 20 9 11 1010.5 1010.3 0.0
21/07:00pm 29.3 24.9 4.7 21 12.7 WSW 17 28 9 15 1010.1 1009.8 0.0
21/06:30pm 29.4 25.0 4.8 21 12.8 W 17 26 9 14 1009.7 1009.4 0.0
21/06:00pm 29.6 27.2 6.9 24 12.2 W 9 13 5 7 1009.5 1009.2 0.0
21/05:30pm 29.3 24.9 7.2 25 11.9 WSW 20 28 11 15 1009.5 1009.2 0.0
21/05:00pm 29.7 25.3 7.6 25 12.1 W 20 32 11 17 1009.6 1009.3 0.0
21/04:30pm 29.4 25.0 7.3 25 12.0 WSW 20 32 11 17 1009.7 1009.4 0.0
21/04:00pm 29.7 25.5 7.6 25 12.1 WNW 19 30 10 16 1009.8 1009.5 0.0
21/03:30pm 29.2 24.6 8.3 27 11.5 WSW 22 30 12 16 1010.2 1009.9 0.0
21/03:00pm 28.8 25.0 9.0 29 11.0 W 19 32 10 17 1010.5 1010.3 0.0
21/02:30pm 28.1 24.3 9.9 32 10.2 SSW 20 26 11 14 1010.6 1010.4 0.0
21/02:00pm 27.3 24.3 10.5 35 9.5 WSW 17 28 9 15 1010.9 1010.7 0.0
21/01:30pm 26.3 21.9 10.5 37 8.9 WSW 24 35 13 19 1011.4 1011.1 0.0
21/01:00pm 26.2 22.4 11.2 39 8.5 WSW 22 35 12 19 1011.6 1011.3 0.0
21/12:30pm 24.7 21.5 11.3 43 7.6 SW 19 26 10 14 1011.9 1011.6 0.0
21/12:00pm 23.9 20.6 11.6 46 7.0 SSW 20 26 11 14 1012.2 1011.9 0.0
21/11:30am 22.5 18.8 11.6 50 6.1 WSW 22 33 12 18 1012.4 1012.1 0.0
21/11:00am 22.5 18.9 11.9 51 6.0 WSW 22 32 12 17 1012.2 1011.9 0.0
21/10:30am 21.6 16.9 11.9 54 5.5 WSW 28 39 15 21 1012.4 1012.1 0.0
21/10:00am 20.4 16.1 11.9 58 4.8 WSW 26 37 14 20 1012.1 1011.8 0.0
21/09:30am 20.7 17.7 12.4 59 4.7 SW 20 30 11 16 1011.7 1011.4 0.0
21/09:00am 19.9 16.0 12.2 61 4.3 SW 24 32 13 17 1011.4 1011.1 0.0
21/08:30am 18.9 14.6 13.3 70 3.2 SW 28 35 15 19 1011.5 1011.2 0.0
21/08:00am 18.6 13.5 13.2 71 3.1 WSW 32 39 17 21 1011.4 1011.1 0.0
21/07:30am 19.5 15.1 14.1 71 3.1 WSW 30 41 16 22 1010.4 1010.2 0.0
21/07:00am 19.7 16.7 14.7 73 2.9 WSW 24 33 13 18 1010.0 1009.7 0.0
21/06:30am 19.4 18.0 14.6 74 2.8 W 15 20 8 11 1009.6 1009.3 0.0
21/06:00am 19.7 17.8 14.1 70 3.3 W 17 20 9 11 1009.2 1008.9 0.0
21/05:30am 20.4 18.0 13.8 66 3.8 W 19 22 10 12 1008.9 1008.6 0.0
21/05:00am 21.1 18.2 13.0 60 4.6 W 20 24 11 13 1008.6 1008.3 0.0
21/04:30am 21.9 19.5 12.7 56 5.3 WNW 17 22 9 12 1008.4 1008.1 0.0
21/04:00am 21.6 19.5 12.5 56 5.2 WNW 15 19 8 10 1008.3 1008.0 0.0
21/03:30am 22.0 19.9 12.5 54 5.4 WNW 15 20 8 11 1008.2 1007.9 0.0
21/03:00am 22.7 20.1 12.0 50 6.1 WNW 17 20 9 11 1008.1 1007.8 0.0
21/02:30am 22.3 20.0 11.7 51 6.0 NW 15 19 8 10 1008.1 1007.8 0.0
21/02:00am 21.5 19.2 11.8 54 5.5 NW 15 17 8 9 1008.4 1008.1 0.0
21/01:30am 20.4 18.3 11.3 56 5.0 N 13 15 7 8 1008.4 1008.1 0.0
21/01:00am 21.0 19.3 11.1 53 5.5 N 11 13 6 7 1008.1 1007.8 0.0
21/12:30am 21.6 21.8 10.4 49 6.1 CALM 0 4 0 2 1008.1 1007.8 0.0
21/12:00am 22.5 22.8 10.9 48 6.5 CALM 0 0 0 0 1008.0 1007.7 0.0
 
Date/Time
EDT
Temp
°C
App
Temp
°C
Dew
Point
Rel
Hum
%
Delta-T
°C
Wind Press
QNH
hPa
Press
MSL
hPa
Rain
since 9 am
mm
Dir
 
Spd
km/h
Gust
km/h
Spd
kts
Gust
kts
20/11:30pm 23.6 23.7 11.6 47 6.8 W 2 7 1 4 1008.2 1007.9 0.0
20/11:00pm 24.0 23.3 12.0 47 6.9 WSW 7 9 4 5 1008.4 1008.1 0.0
20/10:30pm 24.2 23.5 11.9 46 7.0 S 7 13 4 7 1007.9 1007.6 0.0
20/10:00pm 25.0 24.1 12.6 46 7.2 S 9 13 5 7 1007.6 1007.3 0.0
20/09:30pm 25.2 22.3 12.4 45 7.4 S 19 26 10 14 1007.3 1007.0 0.0
20/09:00pm 25.5 21.0 12.7 45 7.5 SSW 28 39 15 21 1008.1 1007.8 0.0
20/08:30pm 26.1 19.5 12.5 42 7.9 SW 39 52 21 28 1008.7 1008.4 0.0
20/08:00pm 26.8 19.5 11.7 39 8.7 SW 41 59 22 32 1008.3 1008.0 0.0
20/07:39pm 27.3 19.9 11.3 37 9.2 SW 41 59 22 32 1007.8 1007.5 0.0
20/07:30pm 27.4 18.6 11.0 36 9.3 SW 48 59 26 32 1007.7 1007.4 0.0
20/07:04pm 28.3 19.4 10.5 33 10.1 SW 48 67 26 36 1007.2 1006.9 0.0
20/07:00pm 28.5 18.9 10.7 33 10.2 SW 52 67 28 36 1007.1 1006.8 0.0
20/06:30pm 30.6 21.1 8.3 25 12.3 WSW 48 63 26 34 1005.9 1005.6 0.0
20/06:02pm 31.6 22.6 4.4 18 14.2 WSW 41 59 22 32 1005.8 1005.5 0.0
20/06:00pm 31.6 22.0 3.6 17 14.5 WSW 43 59 23 32 1005.8 1005.5 0.0
20/05:30pm 32.5 22.6 1.6 14 15.5 WSW 43 54 23 29 1005.0 1004.7 0.0
20/05:00pm 33.4 23.4 1.3 13 16.1 WSW 43 61 23 33 1004.3 1004.0 0.0
20/04:57pm 33.5 23.4 0.2 12 16.4 WSW 43 61 23 33 1004.3 1004.0 0.0
20/04:51pm 34.4 24.2 -0.3 11 17.0 W 43 52 23 28 1004.4 1004.1 0.0
20/04:50pm 35.6 27.2 -0.7 10 17.9 WNW 33 52 18 28 1004.2 1003.9 0.0
20/04:30pm 36.4 28.1 -1.5 9 18.5 WNW 32 44 17 24 1003.9 1003.6 0.0
20/04:00pm 36.6 29.1 -1.4 9 18.7 NW 28 43 15 23 1004.3 1004.0 0.0
20/03:30pm 37.2 29.4 -0.9 9 18.9 WNW 30 57 16 31 1004.5 1004.2 0.0
20/03:01pm 38.1 29.8 -1.9 8 19.6 WNW 32 50 17 27 1005.1 1004.8 0.0
20/03:00pm 38.4 29.9 -1.6 8 19.8 WNW 33 50 18 27 1005.0 1004.7 0.0
20/02:30pm 38.5 31.4 -1.6 8 19.8 WNW 26 43 14 23 1005.5 1005.2 0.0
20/02:08pm 38.0 30.1 -1.9 8 19.6 NW 30 54 16 29 1005.9 1005.6 0.0
20/02:00pm 37.1 28.9 -1.0 9 18.9 NW 32 46 17 25 1006.2 1005.9 0.0
20/01:30pm 37.5 28.9 -2.3 8 19.3 NW 33 43 18 23 1006.5 1006.2 0.0
20/01:00pm 38.0 30.1 -1.9 8 19.6 N 30 41 16 22 1006.9 1006.6 0.0
20/12:30pm 37.4 29.2 -0.8 9 19.0 N 32 50 17 27 1007.3 1007.0 0.0
20/12:26pm 36.9 28.7 -1.1 9 18.7 N 32 50 17 27 1007.5 1007.2 0.0
20/12:00pm 35.9 28.0 -1.9 9 18.3 NNW 30 43 16 23 1008.0 1007.7 0.0
20/11:30am 35.7 26.8 -2.0 9 18.2 NNW 35 48 19 26 1008.6 1008.3 0.0
20/11:00am 35.2 26.2 -2.4 9 18.0 N 35 46 19 25 1009.0 1008.7 0.0
20/10:30am 34.5 26.0 -2.9 9 17.6 N 32 41 17 22 1009.4 1009.1 0.0
20/10:00am 32.8 24.4 -2.8 10 16.6 N 32 41 17 22 1009.7 1009.4 0.0
20/09:30am 31.0 23.3 -2.9 11 15.6 N 28 37 15 20 1009.9 1009.6 0.0
20/09:00am 29.7 22.0 -2.7 12 14.8 N 28 35 15 19 1010.4 1010.2 0.0
20/08:30am 27.7 21.0 -1.3 15 13.4 N 24 28 13 15 1010.6 1010.4 0.0
20/08:00am 25.7 19.1 -0.4 18 12.0 N 24 32 13 17 1010.6 1010.4 0.0
20/07:30am 24.7 18.2 0.3 20 11.3 NNE 24 32 13 17 1010.5 1010.3 0.0
20/07:00am 22.4 15.9 0.3 23 10.1 N 24 32 13 17 1010.8 1010.6 0.0
20/06:30am 22.3 14.9 -0.4 22 10.2 N 28 33 15 18 1010.6 1010.4 0.0
20/06:00am 22.3 15.3 -0.4 22 10.2 NNE 26 32 14 17 1010.4 1010.2 0.0
20/05:30am 22.3 16.1 -0.4 22 10.2 N 22 26 12 14 1010.6 1010.4 0.0
20/05:00am 22.3 16.6 -0.4 22 10.2 NNE 19 24 10 13 1010.5 1010.3 0.0
20/04:30am 22.2 16.3 -0.5 22 10.2 NNE 20 26 11 14 1010.2 1009.9 0.0
20/04:00am 22.2 16.9 -0.5 22 10.2 NE 17 20 9 11 1010.2 1009.9 0.0
20/03:30am 21.5 16.7 0.1 24 9.6 NE 15 19 8 10 1010.5 1010.3 0.0
20/03:00am 21.9 17.1 -0.1 23 9.9 NE 15 17 8 9 1010.7 1010.5 0.0
20/02:30am 21.6 17.1 -0.4 23 9.8 ENE 13 17 7 9 1010.9 1010.7 0.0
20/02:00am 21.6 17.1 -0.4 23 9.8 NE 13 17 7 9 1011.4 1011.1 0.0
20/01:30am 20.1 16.0 -0.5 25 9.1 NE 11 15 6 8 1011.5 1011.2 0.0
20/01:00am 18.9 15.0 -1.5 25 8.7 NE 9 11 5 6 1011.8 1011.5 0.0
20/12:30am 18.7 14.7 -2.3 24 8.8 ENE 9 9 5 5 1012.0 1011.7 0.0
20/12:00am 20.0 15.2 -2.3 22 9.5 E 13 13 7 7 1012.1 1011.8 0.0
 
Date/Time
EDT
Temp
°C
App
Temp
°C
Dew
Point
Rel
Hum
%
Delta-T
°C
Wind Press
QNH
hPa
Press
MSL
hPa
Rain
since 9 am
mm
Dir
 
Spd
km/h
Gust
km/h
Spd
kts
Gust
kts
19/11:30pm 20.2 15.8 -2.2 22 9.5 E 11 15 6 8 1012.3 1012.0 0.0
19/11:00pm 19.6 15.7 -1.5 24 9.1 ESE 9 13 5 7 1012.6 1012.3 0.0
19/10:30pm 18.9 16.6 -2.1 24 8.8 CALM 0 0 0 0 1012.8 1012.5 0.0
19/10:00pm 21.7 19.7 -0.3 23 9.8 CALM 0 0 0 0 1012.9 1012.6 0.0
19/09:30pm 22.3 20.0 -2.4 19 10.7 CALM 0 0 0 0 1012.7 1012.4 0.0
19/09:00pm 24.0 21.6 -3.3 16 11.8 CALM 0 0 0 0 1012.5 1012.2 0.0
19/08:30pm 26.7 24.2 -4.0 13 13.4 CALM 0 0 0 0 1012.6 1012.3 0.0
19/08:00pm 28.7 26.1 -4.6 11 14.6 CALM 0 4 0 2 1012.6 1012.3 0.0
19/07:30pm 30.6 26.3 -4.5 10 15.6 NW 9 13 5 7 1012.5 1012.2 0.0
19/07:00pm 31.2 26.2 -4.0 10 15.9 WNW 13 17 7 9 1012.2 1011.9 0.0
19/06:30pm 31.8 28.0 -3.5 10 16.1 NW 7 15 4 8 1012.2 1011.9 0.0
19/06:00pm 32.0 27.5 -3.4 10 16.3 NW 11 19 6 10 1012.4 1012.1 0.0
19/05:30pm 32.1 27.6 -3.3 10 16.3 W 11 26 6 14 1012.7 1012.4 0.0
19/05:00pm 31.6 25.3 -3.7 10 16.1 WNW 20 28 11 15 1012.9 1012.6 0.0
19/04:30pm 32.2 27.3 -3.2 10 16.3 WSW 13 24 7 13 1013.4 1013.1 0.0
19/04:00pm 31.7 25.6 -3.6 10 16.1 W 19 26 10 14 1013.9 1013.6 0.0
19/03:30pm 32.0 27.6 -2.1 11 16.0 NNE 11 26 6 14 1014.2 1013.9 0.0
19/03:00pm 31.1 26.2 -0.5 13 15.1 N 15 24 8 13 1014.8 1014.5 0.0
19/02:30pm 29.6 26.1 -1.7 13 14.5 NE 7 20 4 11 1015.1 1014.8 0.0
19/02:00pm 29.6 26.5 0.2 15 14.1 NNE 6 17 3 9 1016.0 1015.7 0.0
19/01:30pm 28.6 25.2 -0.5 15 13.7 NW 7 22 4 12 1016.4 1016.1 0.0
19/01:00pm 29.4 24.0 1.0 16 13.8 NNW 19 24 10 13 1016.9 1016.6 0.0

Other Formats:

Comma delimited format used in spreadsheet applications
http://www.bom.gov.au/fwo/IDN60801/IDN60801.94702.axf

JavaScript Object Notation format (JSON) in row-major order
http://www.bom.gov.au/fwo/IDN60801/IDN60801.94702.json